createdAt,value
2022-10-16T00:00:36.857Z,97434.09
2022-10-16T00:01:39.053Z,97433.50
2022-10-16T00:02:40.617Z,97429.88
2022-10-16T00:03:44.454Z,97430.03
2022-10-16T00:04:46.033Z,97431.63
2022-10-16T00:05:47.753Z,97427.50
2022-10-16T00:06:49.307Z,97435.81
2022-10-16T00:07:50.950Z,97431.69
2022-10-16T00:08:53.521Z,97435.50
2022-10-16T00:09:55.051Z,97442.75
2022-10-16T00:11:07.229Z,97433.63
2022-10-16T00:12:08.759Z,97440.72
2022-10-16T00:13:10.351Z,97433.28
2022-10-16T00:14:15.215Z,97432.50
2022-10-16T00:15:17.333Z,97439.44
2022-10-16T00:16:19.643Z,97434.88
2022-10-16T00:17:21.268Z,97439.00
2022-10-16T00:18:22.832Z,97450.22
2022-10-16T00:19:24.392Z,97435.44
2022-10-16T00:20:25.963Z,97443.34
2022-10-16T00:21:29.935Z,97437.78
2022-10-16T00:22:31.691Z,97443.78
2022-10-16T00:23:33.522Z,97439.66
2022-10-16T00:24:35.061Z,97440.47
2022-10-16T00:25:37.206Z,97449.88
2022-10-16T00:26:40.191Z,97451.59
2022-10-16T00:27:41.697Z,97451.94
2022-10-16T00:28:43.444Z,97453.03
2022-10-16T00:29:45.021Z,97455.88
2022-10-16T00:30:46.535Z,97454.50
2022-10-16T00:31:48.059Z,97450.59
2022-10-16T00:32:49.588Z,97453.72
2022-10-16T00:33:52.070Z,97443.78
2022-10-16T00:34:55.711Z,97449.63
2022-10-16T00:35:59.749Z,97450.09
2022-10-16T00:37:01.287Z,97453.28
2022-10-16T00:38:02.829Z,97448.91
2022-10-16T00:39:04.509Z,97450.47
2022-10-16T00:40:06.619Z,97448.91
2022-10-16T00:41:10.820Z,97446.84
2022-10-16T00:42:17.442Z,97446.81
2022-10-16T00:43:42.407Z,97441.75
2022-10-16T00:44:53.619Z,97449.59
2022-10-16T00:45:55.283Z,97452.56
2022-10-16T00:46:56.858Z,97458.25
2022-10-16T00:47:58.514Z,97459.41
2022-10-16T00:49:07.603Z,97466.81
2022-10-16T00:50:17.698Z,97464.03
2022-10-16T00:51:22.955Z,97466.41
2022-10-16T00:52:24.725Z,97467.38
2022-10-16T00:53:27.079Z,97465.81
2022-10-16T00:54:33.078Z,97474.47
2022-10-16T00:55:37.665Z,97470.06
2022-10-16T00:56:43.037Z,97470.69
2022-10-16T00:57:45.258Z,97479.53
2022-10-16T00:58:47.174Z,97471.50
2022-10-16T00:59:48.818Z,97478.63
2022-10-16T01:00:50.398Z,97480.66
2022-10-16T01:01:52.939Z,97472.63
2022-10-16T01:03:01.215Z,97483.19
2022-10-16T01:04:02.738Z,97479.25
2022-10-16T01:05:06.078Z,97485.41
2022-10-16T01:06:36.338Z,97481.44
2022-10-16T01:07:44.454Z,97485.53
2022-10-16T01:09:15.133Z,97484.13
2022-10-16T01:10:28.966Z,97476.88
2022-10-16T01:11:50.514Z,97476.41
2022-10-16T01:13:30.839Z,97483.03
2022-10-16T01:14:59.750Z,97481.13
2022-10-16T01:16:39.393Z,97478.53
2022-10-16T01:17:58.838Z,97476.06
2022-10-16T01:19:11.021Z,97486.09
2022-10-16T01:20:27.152Z,97486.94
2022-10-16T01:21:40.150Z,97489.63
2022-10-16T01:22:59.837Z,97481.00
2022-10-16T01:24:29.310Z,97487.19
2022-10-16T01:25:54.348Z,97479.81
2022-10-16T01:27:08.094Z,97485.03
2022-10-16T01:28:14.226Z,97486.19
2022-10-16T01:29:30.828Z,97488.59
2022-10-16T01:30:34.770Z,97485.78
2022-10-16T01:31:40.586Z,97483.91
2022-10-16T01:32:45.794Z,97487.69
2022-10-16T01:33:57.259Z,97484.56
2022-10-16T01:35:18.992Z,97485.41
2022-10-16T01:36:27.922Z,97479.09
2022-10-16T01:37:49.980Z,97485.09
2022-10-16T01:38:55.682Z,97493.94
2022-10-16T01:40:01.611Z,97488.56
2022-10-16T01:41:12.546Z,97490.13
2022-10-16T01:42:22.900Z,97487.78
2022-10-16T01:43:54.188Z,97496.28
2022-10-16T01:44:57.241Z,97490.44
2022-10-16T01:46:00.392Z,97489.03
2022-10-16T01:47:02.230Z,97491.56
2022-10-16T01:48:06.759Z,97494.56
2022-10-16T01:49:11.385Z,97492.81
2022-10-16T01:50:15.918Z,97494.41
2022-10-16T01:51:20.579Z,97495.97
2022-10-16T01:52:27.316Z,97499.59
2022-10-16T01:53:30.752Z,97487.16
2022-10-16T01:54:35.069Z,97488.41
2022-10-16T01:55:44.794Z,97491.69
2022-10-16T01:56:47.934Z,97486.78
2022-10-16T01:57:52.790Z,97489.78
2022-10-16T01:58:59.083Z,97487.59
2022-10-16T02:00:05.941Z,97485.84
2022-10-16T02:01:10.173Z,97489.03
2022-10-16T02:02:14.299Z,97487.44
2022-10-16T02:03:19.899Z,97492.00
2022-10-16T02:04:35.589Z,97489.97
2022-10-16T02:05:55.275Z,97492.81
2022-10-16T02:06:57.294Z,97492.66
2022-10-16T02:08:00.560Z,97491.84
2022-10-16T02:09:04.865Z,97490.91
2022-10-16T02:10:06.686Z,97492.47
2022-10-16T02:11:08.240Z,97495.16
2022-10-16T02:12:16.457Z,97493.75
2022-10-16T02:13:24.603Z,97492.66
2022-10-16T02:14:27.350Z,97498.00
2022-10-16T02:15:28.961Z,97501.47
2022-10-16T02:16:43.188Z,97502.56
2022-10-16T02:17:44.717Z,97501.78
2022-10-16T02:18:46.298Z,97505.41
2022-10-16T02:19:51.257Z,97498.47
2022-10-16T02:21:03.906Z,97498.47
2022-10-16T02:22:07.898Z,97496.88
2022-10-16T02:23:13.158Z,97503.03
2022-10-16T02:24:20.696Z,97500.66
2022-10-16T02:25:33.325Z,97504.91
2022-10-16T02:27:01.084Z,97507.28
2022-10-16T02:28:14.863Z,97503.53
2022-10-16T02:29:20.333Z,97503.66
2022-10-16T02:30:28.644Z,97503.22
2022-10-16T02:31:35.700Z,97511.09
2022-10-16T02:32:42.050Z,97510.50
2022-10-16T02:33:46.858Z,97511.44
2022-10-16T02:34:50.272Z,97510.78
2022-10-16T02:35:52.474Z,97518.22
2022-10-16T02:36:55.962Z,97514.56
2022-10-16T02:37:58.606Z,97515.69
2022-10-16T02:39:02.169Z,97524.97
2022-10-16T02:40:06.046Z,97522.69
2022-10-16T02:41:07.843Z,97531.81
2022-10-16T02:42:16.198Z,97534.13
2022-10-16T02:43:18.150Z,97529.81
2022-10-16T02:44:19.648Z,97534.56
2022-10-16T02:45:21.873Z,97527.34
2022-10-16T02:46:23.571Z,97530.50
2022-10-16T02:47:25.128Z,97535.06
2022-10-16T02:48:26.661Z,97534.13
2022-10-16T02:49:28.190Z,97532.50
2022-10-16T02:50:29.809Z,97527.88
2022-10-16T02:51:31.407Z,97531.19
2022-10-16T02:52:32.986Z,97535.09
2022-10-16T02:53:34.550Z,97532.69
2022-10-16T02:54:36.051Z,97530.41
2022-10-16T02:55:37.574Z,97530.03
2022-10-16T02:56:39.090Z,97531.50
2022-10-16T02:57:41.520Z,97528.72
2022-10-16T02:58:43.249Z,97539.66
2022-10-16T02:59:45.138Z,97531.38
2022-10-16T03:00:47.013Z,97535.75
2022-10-16T03:01:48.544Z,97537.13
2022-10-16T03:02:50.073Z,97531.78
2022-10-16T03:03:51.606Z,97538.41
2022-10-16T03:04:53.116Z,97537.69
2022-10-16T03:05:54.607Z,97535.84
2022-10-16T03:06:56.121Z,97536.41
2022-10-16T03:07:57.664Z,97539.75
2022-10-16T03:08:59.188Z,97537.16
2022-10-16T03:10:03.952Z,97542.44
2022-10-16T03:11:05.839Z,97543.56
2022-10-16T03:12:07.709Z,97550.09
2022-10-16T03:13:09.243Z,97551.06
2022-10-16T03:14:10.759Z,97550.13
2022-10-16T03:15:12.305Z,97548.59
2022-10-16T03:16:13.838Z,97551.94
2022-10-16T03:17:17.731Z,97554.97
2022-10-16T03:18:19.396Z,97557.81
2022-10-16T03:19:20.935Z,97555.63
2022-10-16T03:20:22.487Z,97562.56
2022-10-16T03:21:23.992Z,97564.63
2022-10-16T03:22:25.538Z,97561.34
2022-10-16T03:23:27.145Z,97551.56
2022-10-16T03:24:28.659Z,97550.97
2022-10-16T03:25:30.232Z,97546.38
2022-10-16T03:26:31.773Z,97557.09
2022-10-16T03:27:33.319Z,97544.81
2022-10-16T03:28:34.849Z,97544.34
2022-10-16T03:29:36.448Z,97544.72
2022-10-16T03:30:38.054Z,97545.72
2022-10-16T03:31:39.630Z,97541.47
2022-10-16T03:32:41.178Z,97542.13
2022-10-16T03:33:42.769Z,97543.25
2022-10-16T03:34:44.575Z,97544.03
2022-10-16T03:35:53.094Z,97548.59
2022-10-16T03:36:55.073Z,97545.78
2022-10-16T03:37:57.468Z,97540.41
2022-10-16T03:38:59.011Z,97548.00
2022-10-16T03:40:00.594Z,97546.56
2022-10-16T03:41:02.137Z,97548.75
2022-10-16T03:42:03.769Z,97544.50
2022-10-16T03:43:05.395Z,97548.28
2022-10-16T03:44:07.082Z,97549.09
2022-10-16T03:45:09.416Z,97546.84
2022-10-16T03:46:11.522Z,97541.50
2022-10-16T03:47:13.084Z,97535.69
2022-10-16T03:48:14.592Z,97544.50
2022-10-16T03:49:16.380Z,97552.06
2022-10-16T03:50:18.009Z,97545.91
2022-10-16T03:51:19.565Z,97544.13
2022-10-16T03:52:21.092Z,97547.91
2022-10-16T03:53:22.658Z,97538.78
2022-10-16T03:54:24.315Z,97550.47
2022-10-16T03:55:25.962Z,97548.28
2022-10-16T03:56:27.532Z,97549.25
2022-10-16T03:57:29.477Z,97547.50
2022-10-16T03:58:31.377Z,97545.78
2022-10-16T03:59:33.378Z,97548.16
2022-10-16T04:00:35.725Z,97550.84
2022-10-16T04:01:37.293Z,97544.69
2022-10-16T04:02:39.103Z,97537.72
2022-10-16T04:03:40.770Z,97544.69
2022-10-16T04:04:42.308Z,97545.66
2022-10-16T04:05:43.831Z,97544.53
2022-10-16T04:06:45.374Z,97549.44
2022-10-16T04:07:46.942Z,97542.97
2022-10-16T04:08:48.566Z,97551.13
2022-10-16T04:09:50.168Z,97557.13
2022-10-16T04:10:52.035Z,97546.50
2022-10-16T04:11:53.678Z,97554.84
2022-10-16T04:12:58.289Z,97555.66
2022-10-16T04:14:00.055Z,97552.06
2022-10-16T04:15:01.643Z,97555.03
2022-10-16T04:16:03.313Z,97562.41
2022-10-16T04:17:04.849Z,97563.59
2022-10-16T04:18:06.929Z,97560.56
2022-10-16T04:19:08.497Z,97559.59
2022-10-16T04:20:10.262Z,97561.50
2022-10-16T04:21:11.817Z,97555.03
2022-10-16T04:22:14.215Z,97554.97
2022-10-16T04:23:15.841Z,97549.56
2022-10-16T04:24:17.358Z,97554.56
2022-10-16T04:25:18.911Z,97549.22
2022-10-16T04:26:20.472Z,97555.19
2022-10-16T04:27:21.975Z,97549.78
2022-10-16T04:28:23.625Z,97548.38
2022-10-16T04:29:25.224Z,97549.97
2022-10-16T04:30:26.884Z,97547.13
2022-10-16T04:31:28.542Z,97553.69
2022-10-16T04:32:30.104Z,97554.47
2022-10-16T04:33:31.637Z,97552.28
2022-10-16T04:34:33.191Z,97552.47
2022-10-16T04:35:34.802Z,97549.97
2022-10-16T04:36:36.345Z,97557.88
2022-10-16T04:37:37.873Z,97553.13
2022-10-16T04:38:40.473Z,97558.41
2022-10-16T04:39:42.001Z,97549.78
2022-10-16T04:40:43.761Z,97557.53
2022-10-16T04:41:45.329Z,97554.19
2022-10-16T04:42:46.862Z,97548.53
2022-10-16T04:43:48.574Z,97555.28
2022-10-16T04:44:50.087Z,97557.94
2022-10-16T04:45:52.048Z,97556.75
2022-10-16T04:46:53.639Z,97561.47
2022-10-16T04:47:58.502Z,97556.56
2022-10-16T04:49:00.048Z,97555.38
2022-10-16T04:50:03.345Z,97553.53
2022-10-16T04:51:05.011Z,97549.00
2022-10-16T04:52:07.090Z,97552.13
2022-10-16T04:53:08.743Z,97549.97
2022-10-16T04:54:11.054Z,97549.56
2022-10-16T04:55:12.579Z,97558.72
2022-10-16T04:56:14.243Z,97555.00
2022-10-16T04:57:15.765Z,97553.50
2022-10-16T04:58:17.350Z,97565.06
2022-10-16T04:59:20.157Z,97557.28
2022-10-16T05:00:21.854Z,97564.56
2022-10-16T05:01:23.558Z,97564.94
2022-10-16T05:02:25.198Z,97563.72
2022-10-16T05:03:26.792Z,97566.06
2022-10-16T05:04:28.358Z,97562.47
2022-10-16T05:05:29.890Z,97569.41
2022-10-16T05:06:31.541Z,97572.56
2022-10-16T05:07:33.060Z,97568.00
2022-10-16T05:08:34.747Z,97577.13
2022-10-16T05:09:36.271Z,97564.44
2022-10-16T05:10:37.803Z,97566.91
2022-10-16T05:11:39.424Z,97569.38
2022-10-16T05:12:40.941Z,97567.34
2022-10-16T05:13:42.480Z,97576.84
2022-10-16T05:14:44.018Z,97574.03
2022-10-16T05:15:49.264Z,97574.72
2022-10-16T05:16:50.905Z,97575.38
2022-10-16T05:17:55.923Z,97575.72
2022-10-16T05:19:22.460Z,97577.50
2022-10-16T05:20:18.968Z,97582.41
2022-10-16T05:21:21.434Z,97584.94
2022-10-16T05:22:23.246Z,97585.94
2022-10-16T05:23:24.760Z,97585.31
2022-10-16T05:24:26.339Z,97582.97
2022-10-16T05:25:27.957Z,97584.91
2022-10-16T05:26:29.474Z,97580.97
2022-10-16T05:27:31.061Z,97589.47
2022-10-16T05:28:33.065Z,97583.06
2022-10-16T05:29:34.688Z,97588.59
2022-10-16T05:30:38.475Z,97585.91
2022-10-16T05:31:40.015Z,97593.47
2022-10-16T05:32:41.681Z,97593.00
2022-10-16T05:33:45.099Z,97588.44
2022-10-16T05:34:46.806Z,97597.56
2022-10-16T05:35:48.644Z,97591.72
2022-10-16T05:36:50.357Z,97598.97
2022-10-16T05:37:51.933Z,97598.97
2022-10-16T05:38:53.548Z,97603.72
2022-10-16T05:39:55.062Z,97607.84
2022-10-16T05:40:57.578Z,97611.81
2022-10-16T05:41:59.119Z,97603.47
2022-10-16T05:43:00.651Z,97607.09
2022-10-16T05:44:05.297Z,97609.16
2022-10-16T05:45:09.379Z,97606.81
2022-10-16T05:46:10.899Z,97610.63
2022-10-16T05:47:13.853Z,97605.75
2022-10-16T05:48:15.758Z,97609.41
2022-10-16T05:49:17.869Z,97606.25
2022-10-16T05:50:19.447Z,97606.88
2022-10-16T05:51:21.083Z,97606.88
2022-10-16T05:52:22.644Z,97607.38
2022-10-16T05:53:26.551Z,97610.03
2022-10-16T05:54:28.064Z,97612.38
2022-10-16T05:55:29.560Z,97619.16
2022-10-16T05:56:31.070Z,97607.47
2022-10-16T05:57:32.597Z,97607.97
2022-10-16T05:58:38.634Z,97608.63
2022-10-16T05:59:40.186Z,97612.44
2022-10-16T06:00:41.749Z,97617.66
2022-10-16T06:01:43.319Z,97614.03
2022-10-16T06:02:45.046Z,97616.25
2022-10-16T06:03:46.657Z,97613.41
2022-10-16T06:04:48.245Z,97612.75
2022-10-16T06:05:49.893Z,97614.97
2022-10-16T06:06:51.487Z,97614.34
2022-10-16T06:07:53.025Z,97614.97
2022-10-16T06:08:55.916Z,97611.19
2022-10-16T06:09:57.426Z,97614.91
2022-10-16T06:11:24.311Z,97614.59
2022-10-16T06:12:25.874Z,97621.91
2022-10-16T06:13:27.397Z,97629.97
2022-10-16T06:14:28.982Z,97623.19
2022-10-16T06:15:30.559Z,97626.16
2022-10-16T06:16:32.092Z,97631.00
2022-10-16T06:17:33.603Z,97631.00
2022-10-16T06:18:35.267Z,97632.25
2022-10-16T06:19:36.804Z,97636.19
2022-10-16T06:20:38.879Z,97638.81
2022-10-16T06:21:40.471Z,97639.41
2022-10-16T06:22:42.090Z,97633.50
2022-10-16T06:24:47.424Z,97639.28
2022-10-16T06:25:48.968Z,97639.34
2022-10-16T06:26:50.479Z,97637.31
2022-10-16T06:27:52.011Z,97635.50
2022-10-16T06:28:56.355Z,97640.00
2022-10-16T06:29:58.629Z,97639.19
2022-10-16T06:31:04.261Z,97647.59
2022-10-16T06:32:08.919Z,97643.13
2022-10-16T06:33:11.781Z,97657.47
2022-10-16T06:34:13.335Z,97652.31
2022-10-16T06:35:14.933Z,97657.09
2022-10-16T06:36:18.301Z,97656.09
2022-10-16T06:37:19.856Z,97649.28
2022-10-16T06:38:21.369Z,97653.06
2022-10-16T06:39:22.877Z,97652.28
2022-10-16T06:40:24.547Z,97662.81
2022-10-16T06:41:26.045Z,97662.97
2022-10-16T06:42:28.116Z,97668.69
2022-10-16T06:43:33.599Z,97658.25
2022-10-16T06:44:35.162Z,97666.47
2022-10-16T06:45:36.693Z,97664.38
2022-10-16T06:46:38.214Z,97662.03
2022-10-16T06:47:39.776Z,97659.34
2022-10-16T06:48:41.363Z,97665.88
2022-10-16T06:49:42.894Z,97669.66
2022-10-16T06:50:44.433Z,97669.59
2022-10-16T06:51:45.966Z,97671.38
2022-10-16T06:52:47.510Z,97670.31
2022-10-16T06:54:06.927Z,97671.38
2022-10-16T06:55:08.868Z,97671.84
2022-10-16T06:56:16.595Z,97666.34
2022-10-16T06:57:18.118Z,97665.78
2022-10-16T06:58:20.222Z,97672.97
2022-10-16T06:59:22.651Z,97671.66
2022-10-16T07:01:31.413Z,97672.16
2022-10-16T07:02:33.041Z,97674.53
2022-10-16T07:03:36.885Z,97660.47
2022-10-16T07:04:38.410Z,97666.97
2022-10-16T07:05:43.611Z,97672.16
2022-10-16T07:06:45.239Z,97667.88
2022-10-16T07:07:46.793Z,97664.16
2022-10-16T07:08:49.245Z,97673.44
2022-10-16T07:09:50.782Z,97672.81
2022-10-16T07:11:00.649Z,97673.56
2022-10-16T07:12:02.203Z,97680.25
2022-10-16T07:13:04.362Z,97678.88
2022-10-16T07:14:06.429Z,97680.38
2022-10-16T07:15:08.798Z,97684.31
2022-10-16T07:16:13.429Z,97677.13
2022-10-16T07:17:15.016Z,97677.00
2022-10-16T07:18:16.570Z,97677.13
2022-10-16T07:19:19.025Z,97678.69
2022-10-16T07:20:21.165Z,97678.69
2022-10-16T07:21:23.772Z,97680.38
2022-10-16T07:22:25.703Z,97678.34
2022-10-16T07:23:27.339Z,97676.34
2022-10-16T07:24:28.889Z,97677.09
2022-10-16T07:25:30.397Z,97672.31
2022-10-16T07:26:34.887Z,97681.22
2022-10-16T07:28:40.789Z,97676.00
2022-10-16T07:29:42.657Z,97679.13
2022-10-16T07:30:44.187Z,97680.91
2022-10-16T07:31:46.215Z,97678.38
2022-10-16T07:32:47.750Z,97674.22
2022-10-16T07:33:50.389Z,97683.78
2022-10-16T07:34:52.181Z,97679.69
2022-10-16T07:35:55.657Z,97677.78
2022-10-16T07:36:57.221Z,97672.06
2022-10-16T07:37:58.805Z,97669.69
2022-10-16T07:39:00.615Z,97681.59
2022-10-16T07:40:02.309Z,97678.69
2022-10-16T07:41:06.365Z,97674.84
2022-10-16T07:42:08.738Z,97680.13
2022-10-16T07:43:10.792Z,97675.56
2022-10-16T07:44:12.346Z,97672.09
2022-10-16T07:45:13.974Z,97683.66
2022-10-16T07:46:17.342Z,97677.31
2022-10-16T07:47:18.964Z,97673.59
2022-10-16T07:48:21.643Z,97675.31
2022-10-16T07:49:23.165Z,97670.41
2022-10-16T07:50:24.650Z,97670.94
2022-10-16T07:51:27.241Z,97667.44
2022-10-16T07:52:29.257Z,97666.16
2022-10-16T07:53:31.126Z,97671.06
2022-10-16T07:54:32.685Z,97674.13
2022-10-16T07:55:34.239Z,97671.84
2022-10-16T07:56:37.648Z,97669.47
2022-10-16T07:57:41.462Z,97668.75
2022-10-16T07:58:43.311Z,97672.19
2022-10-16T07:59:44.817Z,97671.06
2022-10-16T08:00:46.453Z,97671.41
2022-10-16T08:01:49.658Z,97669.91
2022-10-16T08:02:51.229Z,97675.81
2022-10-16T08:03:53.171Z,97670.66
2022-10-16T08:04:54.746Z,97673.19
2022-10-16T08:05:58.183Z,97672.56
2022-10-16T08:06:59.701Z,97668.19
2022-10-16T08:08:02.994Z,97667.53
2022-10-16T08:09:05.074Z,97670.28
2022-10-16T08:10:06.935Z,97665.50
2022-10-16T08:11:09.065Z,97670.19
2022-10-16T08:12:12.014Z,97667.81
2022-10-16T08:13:16.276Z,97660.72
2022-10-16T08:14:18.108Z,97665.72
2022-10-16T08:15:20.499Z,97663.97
2022-10-16T08:16:22.475Z,97662.94
2022-10-16T08:17:24.309Z,97662.81
2022-10-16T08:18:26.154Z,97661.34
2022-10-16T08:19:27.727Z,97658.78
2022-10-16T08:20:31.025Z,97655.06
2022-10-16T08:21:32.554Z,97656.72
2022-10-16T08:22:34.066Z,97657.78
2022-10-16T08:23:35.703Z,97653.22
2022-10-16T08:24:38.004Z,97655.84
2022-10-16T08:25:40.751Z,97654.81
2022-10-16T08:26:42.306Z,97658.28
2022-10-16T08:27:43.932Z,97655.41
2022-10-16T08:28:46.122Z,97653.63
2022-10-16T08:29:49.741Z,97655.25
2022-10-16T08:30:51.322Z,97653.50
2022-10-16T08:31:52.940Z,97648.47
2022-10-16T08:32:54.539Z,97649.03
2022-10-16T08:33:56.094Z,97655.97
2022-10-16T08:34:57.679Z,97650.53
2022-10-16T08:35:59.639Z,97652.97
2022-10-16T08:37:01.148Z,97651.13
2022-10-16T08:38:06.444Z,97651.97
2022-10-16T08:39:08.247Z,97647.16
2022-10-16T08:40:20.886Z,97654.78
2022-10-16T08:41:31.255Z,97653.28
2022-10-16T08:42:50.933Z,97646.44
2022-10-16T08:44:29.181Z,97656.56
2022-10-16T08:45:30.755Z,97653.28
2022-10-16T08:46:51.303Z,97654.69
2022-10-16T08:48:14.178Z,97653.84
2022-10-16T08:49:16.295Z,97649.44
2022-10-16T08:50:28.094Z,97652.44
2022-10-16T08:51:38.011Z,97651.00
2022-10-16T08:52:45.036Z,97652.16
2022-10-16T08:53:58.749Z,97647.97
2022-10-16T08:55:00.368Z,97642.16
2022-10-16T08:56:01.962Z,97643.72
2022-10-16T08:57:21.293Z,97643.81
2022-10-16T08:58:31.351Z,97639.03
2022-10-16T08:59:32.953Z,97633.88
2022-10-16T09:00:34.607Z,97632.31
2022-10-16T09:01:42.426Z,97629.88
2022-10-16T09:02:53.959Z,97628.03
2022-10-16T09:04:20.260Z,97631.19
2022-10-16T09:05:37.864Z,97625.88
2022-10-16T09:06:46.708Z,97640.19
2022-10-16T09:08:13.160Z,97632.31
2022-10-16T09:09:30.426Z,97630.25
2022-10-16T09:10:45.173Z,97632.88
2022-10-16T09:12:14.419Z,97636.31
2022-10-16T09:13:27.886Z,97631.03
2022-10-16T09:15:03.888Z,97638.59
2022-10-16T09:16:19.106Z,97632.38
2022-10-16T09:17:51.978Z,97628.75
2022-10-16T09:19:16.037Z,97628.19
2022-10-16T09:20:59.741Z,97627.19
2022-10-16T09:22:11.548Z,97641.50
2022-10-16T09:23:17.774Z,97632.28
2022-10-16T09:24:26.894Z,97634.91
2022-10-16T09:25:30.147Z,97630.16
2022-10-16T09:26:31.673Z,97625.94
2022-10-16T09:27:33.306Z,97632.94
2022-10-16T09:28:34.883Z,97626.81
2022-10-16T09:29:36.488Z,97625.03
2022-10-16T09:30:39.424Z,97623.41
2022-10-16T09:31:42.693Z,97624.06
2022-10-16T09:32:46.722Z,97617.47
2022-10-16T09:34:07.209Z,97617.47
2022-10-16T09:35:21.539Z,97614.47
2022-10-16T09:36:26.207Z,97613.16
2022-10-16T09:37:28.107Z,97615.69
2022-10-16T09:38:36.886Z,97614.53
2022-10-16T09:39:52.957Z,97612.63
2022-10-16T09:40:59.358Z,97612.63
2022-10-16T09:42:05.344Z,97608.03
2022-10-16T09:43:32.378Z,97615.81
2022-10-16T09:44:34.111Z,97613.75
2022-10-16T09:45:35.696Z,97604.28
2022-10-16T09:46:39.188Z,97608.47
2022-10-16T09:47:44.338Z,97603.44
2022-10-16T09:48:49.810Z,97604.63
2022-10-16T09:49:53.923Z,97597.97
2022-10-16T09:51:04.891Z,97598.09
2022-10-16T09:52:14.796Z,97594.16
2022-10-16T09:53:18.616Z,97595.16
2022-10-16T09:54:22.380Z,97592.88
2022-10-16T09:55:23.916Z,97598.34
2022-10-16T09:56:31.676Z,97595.16
2022-10-16T09:57:33.280Z,97592.00
2022-10-16T09:58:34.808Z,97596.59
2022-10-16T09:59:47.989Z,97584.66
2022-10-16T10:00:54.990Z,97588.34
2022-10-16T10:01:56.811Z,97590.84
2022-10-16T10:02:58.564Z,97593.16
2022-10-16T10:04:03.536Z,97592.00
2022-10-16T10:05:22.902Z,97592.91
2022-10-16T10:06:33.984Z,97592.88
2022-10-16T10:07:43.984Z,97576.50
2022-10-16T10:09:20.470Z,97575.53
2022-10-16T10:10:30.096Z,97571.81
2022-10-16T10:11:58.858Z,97569.63
2022-10-16T10:13:01.009Z,97575.00
2022-10-16T10:14:07.927Z,97569.97
2022-10-16T10:15:13.711Z,97568.00
2022-10-16T10:16:24.932Z,97566.44
2022-10-16T10:17:29.928Z,97565.47
2022-10-16T10:18:32.903Z,97563.59
2022-10-16T10:19:48.640Z,97564.63
2022-10-16T10:21:15.642Z,97566.75
2022-10-16T10:22:37.355Z,97558.94
2022-10-16T10:23:39.166Z,97560.53
2022-10-16T10:24:40.747Z,97557.38
2022-10-16T10:25:56.560Z,97556.41
2022-10-16T10:27:19.696Z,97553.59
2022-10-16T10:28:43.144Z,97555.34
2022-10-16T10:30:09.256Z,97553.94
2022-10-16T10:31:26.007Z,97560.16
2022-10-16T10:32:35.925Z,97560.91
2022-10-16T10:33:56.617Z,97560.22
2022-10-16T10:35:14.531Z,97560.69
2022-10-16T10:36:38.582Z,97565.44
2022-10-16T10:37:56.690Z,97555.72
2022-10-16T10:39:02.319Z,97554.44
2022-10-16T10:40:06.974Z,97558.72
2022-10-16T10:41:35.682Z,97554.13
2022-10-16T10:42:58.738Z,97547.34
2022-10-16T10:44:21.165Z,97549.75
2022-10-16T10:45:32.249Z,97547.03
2022-10-16T10:46:33.741Z,97543.63
2022-10-16T10:47:47.588Z,97548.31
2022-10-16T10:48:52.719Z,97543.31
2022-10-16T10:50:15.324Z,97542.75
2022-10-16T10:51:55.547Z,97543.94
2022-10-16T10:53:10.837Z,97532.97
2022-10-16T10:54:15.185Z,97539.53
2022-10-16T10:55:35.042Z,97534.41
2022-10-16T10:56:57.841Z,97531.88
2022-10-16T10:57:59.307Z,97538.81
2022-10-16T10:59:22.788Z,97530.69
2022-10-16T11:00:29.371Z,97525.28
2022-10-16T11:01:42.830Z,97530.13
2022-10-16T11:03:10.643Z,97513.22
2022-10-16T11:04:15.165Z,97520.31
2022-10-16T11:05:41.215Z,97521.16
2022-10-16T11:06:49.635Z,97515.72
2022-10-16T11:08:08.838Z,97515.75
2022-10-16T11:09:19.630Z,97513.22
2022-10-16T11:10:28.238Z,97515.16
2022-10-16T11:11:41.171Z,97515.88
2022-10-16T11:12:50.053Z,97516.38
2022-10-16T11:13:54.422Z,97512.28
2022-10-16T11:15:06.490Z,97516.22
2022-10-16T11:16:21.373Z,97506.84
2022-10-16T11:17:30.311Z,97505.22
2022-10-16T11:18:40.185Z,97508.97
2022-10-16T11:20:05.601Z,97507.69
2022-10-16T11:21:13.532Z,97513.75
2022-10-16T11:22:38.580Z,97508.38
2022-10-16T11:23:42.645Z,97500.72
2022-10-16T11:24:50.865Z,97499.56
2022-10-16T11:25:55.222Z,97504.31
2022-10-16T11:27:01.491Z,97501.28
2022-10-16T11:28:12.514Z,97490.91
2022-10-16T11:29:21.430Z,97484.00
2022-10-16T11:30:29.375Z,97494.47
2022-10-16T11:31:59.216Z,97495.50
2022-10-16T11:33:09.897Z,97486.06
2022-10-16T11:34:32.985Z,97484.16
2022-10-16T11:35:53.047Z,97483.31
2022-10-16T11:36:57.409Z,97488.34
2022-10-16T11:38:03.006Z,97482.59
2022-10-16T11:39:10.618Z,97488.38
2022-10-16T11:40:34.790Z,97485.72
2022-10-16T11:41:38.798Z,97486.53
2022-10-16T11:42:47.721Z,97480.69
2022-10-16T11:44:07.795Z,97478.97
2022-10-16T11:45:25.617Z,97474.44
2022-10-16T11:46:28.340Z,97472.19
2022-10-16T11:47:59.204Z,97462.91
2022-10-16T11:49:13.301Z,97472.31
2022-10-16T11:50:26.526Z,97473.47
2022-10-16T11:51:54.744Z,97465.31
2022-10-16T11:53:12.418Z,97464.50
2022-10-16T11:54:36.607Z,97464.31
2022-10-16T11:55:44.596Z,97463.53
2022-10-16T11:56:52.417Z,97459.75
2022-10-16T11:58:01.232Z,97457.06
2022-10-16T11:59:14.830Z,97462.94
2022-10-16T12:00:29.997Z,97459.47
2022-10-16T12:01:40.143Z,97463.09
2022-10-16T12:02:47.102Z,97463.09
2022-10-16T12:04:06.390Z,97457.69
2022-10-16T12:05:16.313Z,97465.13
2022-10-16T12:06:32.183Z,97462.38
2022-10-16T12:07:39.695Z,97462.38
2022-10-16T12:08:41.810Z,97461.53
2022-10-16T12:09:44.068Z,97458.38
2022-10-16T12:10:48.325Z,97459.09
2022-10-16T12:11:49.937Z,97461.41
2022-10-16T12:12:51.707Z,97456.06
2022-10-16T12:14:13.552Z,97456.97
2022-10-16T12:15:40.491Z,97454.66
2022-10-16T12:16:55.294Z,97461.63
2022-10-16T12:17:57.617Z,97451.53
2022-10-16T12:19:17.282Z,97451.59
2022-10-16T12:20:20.533Z,97450.44
2022-10-16T12:21:32.350Z,97455.81
2022-10-16T12:22:36.912Z,97458.19
2022-10-16T12:23:56.037Z,97460.16
2022-10-16T12:24:58.530Z,97448.53
2022-10-16T12:26:03.397Z,97450.81
2022-10-16T12:27:08.174Z,97456.25
2022-10-16T12:28:15.646Z,97458.63
2022-10-16T12:29:37.854Z,97454.78
2022-10-16T12:30:39.522Z,97457.84
2022-10-16T12:31:54.489Z,97450.84
2022-10-16T12:33:23.128Z,97456.34
2022-10-16T12:34:24.648Z,97447.81
2022-10-16T12:35:36.107Z,97452.03
2022-10-16T12:36:37.925Z,97457.09
2022-10-16T12:37:39.617Z,97447.81
2022-10-16T12:38:53.033Z,97446.25
2022-10-16T12:39:56.723Z,97444.00
2022-10-16T12:41:03.590Z,97448.69
2022-10-16T12:42:24.171Z,97443.97
2022-10-16T12:43:43.612Z,97439.56
2022-10-16T12:44:46.173Z,97438.78
2022-10-16T12:45:48.103Z,97440.00
2022-10-16T12:46:51.806Z,97436.13
2022-10-16T12:47:55.215Z,97437.34
2022-10-16T12:49:15.118Z,97442.38
2022-10-16T12:50:38.483Z,97437.28
2022-10-16T12:51:41.368Z,97433.84
2022-10-16T12:52:45.491Z,97430.81
2022-10-16T12:53:47.062Z,97435.47
2022-10-16T12:54:48.738Z,97443.25
2022-10-16T12:56:03.150Z,97444.91
2022-10-16T12:57:22.422Z,97437.94
2022-10-16T12:58:32.230Z,97442.59
2022-10-16T12:59:49.017Z,97443.44
2022-10-16T13:01:13.299Z,97442.28
2022-10-16T13:02:49.109Z,97441.88